sensor_id;sensor_type;location;lat;lon;timestamp;P1;P2;P0
33948;PMS7003;20229;49.856;19.030;2023-02-28T00:01:05;30;28;20
33948;PMS7003;20229;49.856;19.030;2023-02-28T00:06:19;35;28;20
33948;PMS7003;20229;49.856;19.030;2023-02-28T00:11:33;27;25;18
33948;PMS7003;20229;49.856;19.030;2023-02-28T00:16:47;36;28;21
33948;PMS7003;20229;49.856;19.030;2023-02-28T00:22:01;29;28;20
33948;PMS7003;20229;49.856;19.030;2023-02-28T00:27:15;37;29;22
33948;PMS7003;20229;49.856;19.030;2023-02-28T00:32:29;37;33;22
33948;PMS7003;20229;49.856;19.030;2023-02-28T00:37:43;30;26;19
33948;PMS7003;20229;49.856;19.030;2023-02-28T00:42:57;26;24;17
33948;PMS7003;20229;49.856;19.030;2023-02-28T00:48:11;26;25;19
33948;PMS7003;20229;49.856;19.030;2023-02-28T00:53:24;30;27;20
33948;PMS7003;20229;49.856;19.030;2023-02-28T00:58:38;31;27;20
33948;PMS7003;20229;49.856;19.030;2023-02-28T01:03:53;33;28;20
33948;PMS7003;20229;49.856;19.030;2023-02-28T01:09:07;23;23;17
33948;PMS7003;20229;49.856;19.030;2023-02-28T01:14:21;34;27;18
33948;PMS7003;20229;49.856;19.030;2023-02-28T01:19:35;31;28;20
33948;PMS7003;20229;49.856;19.030;2023-02-28T01:24:49;26;23;16
33948;PMS7003;20229;49.856;19.030;2023-02-28T01:30:03;32;25;19
33948;PMS7003;20229;49.856;19.030;2023-02-28T01:35:18;27;22;16
33948;PMS7003;20229;49.856;19.030;2023-02-28T01:40:32;28;20;13
33948;PMS7003;20229;49.856;19.030;2023-02-28T01:45:45;31;28;19
33948;PMS7003;20229;49.856;19.030;2023-02-28T01:51:00;33;26;19
33948;PMS7003;20229;49.856;19.030;2023-02-28T01:56:22;25;22;16
33948;PMS7003;20229;49.856;19.030;2023-02-28T02:01:39;27;22;16
33948;PMS7003;20229;49.856;19.030;2023-02-28T02:06:53;30;25;16
33948;PMS7003;20229;49.856;19.030;2023-02-28T02:12:19;30;23;15
33948;PMS7003;20229;49.856;19.030;2023-02-28T02:18:04;26;21;14
33948;PMS7003;20229;49.856;19.030;2023-02-28T02:45:09;25;22;15
33948;PMS7003;20229;49.856;19.030;2023-02-28T02:50:31;24;21;14
33948;PMS7003;20229;49.856;19.030;2023-02-28T02:55:51;22;20;12
33948;PMS7003;20229;49.856;19.030;2023-02-28T03:01:08;22;18;10
33948;PMS7003;20229;49.856;19.030;2023-02-28T03:06:27;25;19;10
33948;PMS7003;20229;49.856;19.030;2023-02-28T03:11:41;11;7;1
33948;PMS7003;20229;49.856;19.030;2023-02-28T03:17:00;8;6;0
33948;PMS7003;20229;49.856;19.030;2023-02-28T03:28:19;37;31;21
33948;PMS7003;20229;49.856;19.030;2023-02-28T03:33:45;35;27;18
33948;PMS7003;20229;49.856;19.030;2023-02-28T03:39:08;43;34;25
33948;PMS7003;20229;49.856;19.030;2023-02-28T03:44:30;43;35;24
33948;PMS7003;20229;49.856;19.030;2023-02-28T03:49:53;40;34;24
33948;PMS7003;20229;49.856;19.030;2023-02-28T03:55:16;42;34;23
33948;PMS7003;20229;49.856;19.030;2023-02-28T04:00:32;37;30;21
33948;PMS7003;20229;49.856;19.030;2023-02-28T04:05:51;39;33;22
33948;PMS7003;20229;49.856;19.030;2023-02-28T04:11:08;35;30;19
33948;PMS7003;20229;49.856;19.030;2023-02-28T04:16:32;36;29;21
33948;PMS7003;20229;49.856;19.030;2023-02-28T04:21:48;43;32;21
33948;PMS7003;20229;49.856;19.030;2023-02-28T04:27:03;40;32;22
33948;PMS7003;20229;49.856;19.030;2023-02-28T04:32:17;43;35;25
33948;PMS7003;20229;49.856;19.030;2023-02-28T04:37:31;29;21;13
33948;PMS7003;20229;49.856;19.030;2023-02-28T04:42:49;37;29;21
33948;PMS7003;20229;49.856;19.030;2023-02-28T04:48:03;39;31;21
33948;PMS7003;20229;49.856;19.030;2023-02-28T04:53:17;34;27;17
33948;PMS7003;20229;49.856;19.030;2023-02-28T04:58:31;32;26;18
33948;PMS7003;20229;49.856;19.030;2023-02-28T05:03:46;38;31;20
33948;PMS7003;20229;49.856;19.030;2023-02-28T05:09:00;45;34;22
33948;PMS7003;20229;49.856;19.030;2023-02-28T05:14:14;44;35;25
33948;PMS7003;20229;49.856;19.030;2023-02-28T05:19:28;41;33;23
33948;PMS7003;20229;49.856;19.030;2023-02-28T05:24:41;50;39;26
33948;PMS7003;20229;49.856;19.030;2023-02-28T05:29:56;45;35;26
33948;PMS7003;20229;49.856;19.030;2023-02-28T05:35:10;38;32;22
33948;PMS7003;20229;49.856;19.030;2023-02-28T05:40:25;15;9;3
33948;PMS7003;20229;49.856;19.030;2023-02-28T05:45:38;34;27;17
33948;PMS7003;20229;49.856;19.030;2023-02-28T05:50:52;41;33;22
33948;PMS7003;20229;49.856;19.030;2023-02-28T05:56:06;40;31;21
33948;PMS7003;20229;49.856;19.030;2023-02-28T06:01:21;45;36;24
33948;PMS7003;20229;49.856;19.030;2023-02-28T06:06:42;46;36;23
33948;PMS7003;20229;49.856;19.030;2023-02-28T06:11:57;40;32;21
33948;PMS7003;20229;49.856;19.030;2023-02-28T06:17:22;46;38;25
33948;PMS7003;20229;49.856;19.030;2023-02-28T06:22:36;45;35;22
33948;PMS7003;20229;49.856;19.030;2023-02-28T06:27:50;48;37;24
33948;PMS7003;20229;49.856;19.030;2023-02-28T06:33:04;40;32;21
33948;PMS7003;20229;49.856;19.030;2023-02-28T06:38:18;47;34;22
33948;PMS7003;20229;49.856;19.030;2023-02-28T06:43:33;41;34;21
33948;PMS7003;20229;49.856;19.030;2023-02-28T06:48:49;40;32;21
33948;PMS7003;20229;49.856;19.030;2023-02-28T06:54:03;45;34;20
33948;PMS7003;20229;49.856;19.030;2023-02-28T06:59:18;43;33;22
33948;PMS7003;20229;49.856;19.030;2023-02-28T07:04:32;46;37;25
33948;PMS7003;20229;49.856;19.030;2023-02-28T07:09:45;44;33;23
33948;PMS7003;20229;49.856;19.030;2023-02-28T07:14:59;50;35;23
33948;PMS7003;20229;49.856;19.030;2023-02-28T07:20:13;50;38;25
33948;PMS7003;20229;49.856;19.030;2023-02-28T07:25:28;39;33;24
33948;PMS7003;20229;49.856;19.030;2023-02-28T07:30:42;50;38;25
33948;PMS7003;20229;49.856;19.030;2023-02-28T07:36:00;54;43;30
33948;PMS7003;20229;49.856;19.030;2023-02-28T07:41:21;65;52;39
33948;PMS7003;20229;49.856;19.030;2023-02-28T07:46:37;47;39;26
33948;PMS7003;20229;49.856;19.030;2023-02-28T07:51:51;54;43;30
33948;PMS7003;20229;49.856;19.030;2023-02-28T07:57:05;44;36;23
33948;PMS7003;20229;49.856;19.030;2023-02-28T08:02:19;47;39;26
33948;PMS7003;20229;49.856;19.030;2023-02-28T08:07:33;46;36;21
33948;PMS7003;20229;49.856;19.030;2023-02-28T08:12:47;57;46;34
33948;PMS7003;20229;49.856;19.030;2023-02-28T08:18:01;49;38;22
33948;PMS7003;20229;49.856;19.030;2023-02-28T08:23:15;59;47;32
33948;PMS7003;20229;49.856;19.030;2023-02-28T08:28:29;61;48;35
33948;PMS7003;20229;49.856;19.030;2023-02-28T08:33:43;69;55;43
33948;PMS7003;20229;49.856;19.030;2023-02-28T08:39:05;70;58;48
33948;PMS7003;20229;49.856;19.030;2023-02-28T08:44:19;52;45;35
33948;PMS7003;20229;49.856;19.030;2023-02-28T08:49:33;65;51;39
33948;PMS7003;20229;49.856;19.030;2023-02-28T08:54:47;59;48;36
33948;PMS7003;20229;49.856;19.030;2023-02-28T09:00:02;33;28;21
33948;PMS7003;20229;49.856;19.030;2023-02-28T09:05:17;46;39;29
33948;PMS7003;20229;49.856;19.030;2023-02-28T09:10:31;88;83;75
33948;PMS7003;20229;49.856;19.030;2023-02-28T09:15:45;49;43;32
33948;PMS7003;20229;49.856;19.030;2023-02-28T09:20:59;32;29;22
33948;PMS7003;20229;49.856;19.030;2023-02-28T09:30:17;74;69;60
33948;PMS7003;20229;49.856;19.030;2023-02-28T09:35:43;73;62;56
33948;PMS7003;20229;49.856;19.030;2023-02-28T09:41:01;55;47;40
33948;PMS7003;20229;49.856;19.030;2023-02-28T09:51:50;28;27;19
33948;PMS7003;20229;49.856;19.030;2023-02-28T10:19:03;32;26;20
33948;PMS7003;20229;49.856;19.030;2023-02-28T10:24:26;38;32;24
33948;PMS7003;20229;49.856;19.030;2023-02-28T10:29:47;41;33;27
33948;PMS7003;20229;49.856;19.030;2023-02-28T10:40:33;59;48;38
33948;PMS7003;20229;49.856;19.030;2023-02-28T10:45:53;64;52;41
33948;PMS7003;20229;49.856;19.030;2023-02-28T10:51:16;73;66;58
33948;PMS7003;20229;49.856;19.030;2023-02-28T10:56:32;79;70;62
33948;PMS7003;20229;49.856;19.030;2023-02-28T11:01:46;56;47;42
33948;PMS7003;20229;49.856;19.030;2023-02-28T11:12:34;20;19;15
33948;PMS7003;20229;49.856;19.030;2023-02-28T11:23:16;41;35;26
33948;PMS7003;20229;49.856;19.030;2023-02-28T11:28:34;32;28;21
33948;PMS7003;20229;49.856;19.030;2023-02-28T11:33:51;34;29;21
33948;PMS7003;20229;49.856;19.030;2023-02-28T11:39:10;40;37;27
33948;PMS7003;20229;49.856;19.030;2023-02-28T11:55:53;39;33;24
33948;PMS7003;20229;49.856;19.030;2023-02-28T12:23:11;32;29;22
33948;PMS7003;20229;49.856;19.030;2023-02-28T12:39:45;33;28;21
33948;PMS7003;20229;49.856;19.030;2023-02-28T12:45:08;39;30;25
33948;PMS7003;20229;49.856;19.030;2023-02-28T12:50:26;28;24;18
33948;PMS7003;20229;49.856;19.030;2023-02-28T13:17:26;48;41;32
33948;PMS7003;20229;49.856;19.030;2023-02-28T13:22:41;33;28;19
33948;PMS7003;20229;49.856;19.030;2023-02-28T13:28:00;42;39;30
33948;PMS7003;20229;49.856;19.030;2023-02-28T13:33:19;33;31;25
33948;PMS7003;20229;49.856;19.030;2023-02-28T13:38:42;51;45;34
33948;PMS7003;20229;49.856;19.030;2023-02-28T13:43:59;28;23;18
33948;PMS7003;20229;49.856;19.030;2023-02-28T14:11:37;34;32;24
33948;PMS7003;20229;49.856;19.030;2023-02-28T14:16:53;29;26;19
33948;PMS7003;20229;49.856;19.030;2023-02-28T14:38:32;23;17;11
33948;PMS7003;20229;49.856;19.030;2023-02-28T14:43:54;72;60;49
33948;PMS7003;20229;49.856;19.030;2023-02-28T14:54:39;62;48;37
33948;PMS7003;20229;49.856;19.030;2023-02-28T14:59:58;65;53;40
33948;PMS7003;20229;49.856;19.030;2023-02-28T15:05:19;70;59;47
33948;PMS7003;20229;49.856;19.030;2023-02-28T15:11:08;96;80;75
33948;PMS7003;20229;49.856;19.030;2023-02-28T15:21:55;140;136;131
33948;PMS7003;20229;49.856;19.030;2023-02-28T15:27:20;155;153;150
33948;PMS7003;20229;49.856;19.030;2023-02-28T15:32:38;136;132;128
33948;PMS7003;20229;49.856;19.030;2023-02-28T15:37:54;116;114;111
33948;PMS7003;20229;49.856;19.030;2023-02-28T15:43:15;76;67;64
33948;PMS7003;20229;49.856;19.030;2023-02-28T15:48:38;83;77;72
33948;PMS7003;20229;49.856;19.030;2023-02-28T15:54:01;58;47;40
33948;PMS7003;20229;49.856;19.030;2023-02-28T16:10:35;51;42;32
33948;PMS7003;20229;49.856;19.030;2023-02-28T16:15:49;46;39;30
33948;PMS7003;20229;49.856;19.030;2023-02-28T16:21:04;43;38;29
33948;PMS7003;20229;49.856;19.030;2023-02-28T16:26:19;39;35;26
33948;PMS7003;20229;49.856;19.030;2023-02-28T16:31:40;37;31;24
33948;PMS7003;20229;49.856;19.030;2023-02-28T16:36:54;35;31;23
33948;PMS7003;20229;49.856;19.030;2023-02-28T16:42:15;30;25;19
33948;PMS7003;20229;49.856;19.030;2023-02-28T16:47:31;33;24;16
33948;PMS7003;20229;49.856;19.030;2023-02-28T16:52:46;31;28;19
33948;PMS7003;20229;49.856;19.030;2023-02-28T16:58:02;32;27;20
33948;PMS7003;20229;49.856;19.030;2023-02-28T17:08:38;38;31;20
33948;PMS7003;20229;49.856;19.030;2023-02-28T17:13:52;36;27;12
33948;PMS7003;20229;49.856;19.030;2023-02-28T17:19:16;38;32;21
33948;PMS7003;20229;49.856;19.030;2023-02-28T17:24:28;41;35;22
33948;PMS7003;20229;49.856;19.030;2023-02-28T17:29:42;43;32;21
33948;PMS7003;20229;49.856;19.030;2023-02-28T17:34:55;37;31;21
33948;PMS7003;20229;49.856;19.030;2023-02-28T17:40:14;39;33;22
33948;PMS7003;20229;49.856;19.030;2023-02-28T17:45:29;38;29;16
33948;PMS7003;20229;49.856;19.030;2023-02-28T17:50:43;37;34;23
33948;PMS7003;20229;49.856;19.030;2023-02-28T17:55:57;55;42;26
33948;PMS7003;20229;49.856;19.030;2023-02-28T18:01:11;46;36;22
33948;PMS7003;20229;49.856;19.030;2023-02-28T18:06:25;46;35;23
33948;PMS7003;20229;49.856;19.030;2023-02-28T18:11:45;52;38;26
33948;PMS7003;20229;49.856;19.030;2023-02-28T18:17:01;55;41;28
33948;PMS7003;20229;49.856;19.030;2023-02-28T18:22:15;50;41;29
33948;PMS7003;20229;49.856;19.030;2023-02-28T18:27:29;56;44;27
33948;PMS7003;20229;49.856;19.030;2023-02-28T18:32:44;57;42;28
33948;PMS7003;20229;49.856;19.030;2023-02-28T18:38:00;54;40;28
33948;PMS7003;20229;49.856;19.030;2023-02-28T18:43:19;52;38;24
33948;PMS7003;20229;49.856;19.030;2023-02-28T18:48:33;62;45;27
33948;PMS7003;20229;49.856;19.030;2023-02-28T18:53:48;60;44;26
33948;PMS7003;20229;49.856;19.030;2023-02-28T18:59:02;34;24;6
33948;PMS7003;20229;49.856;19.030;2023-02-28T19:04:16;43;29;12
33948;PMS7003;20229;49.856;19.030;2023-02-28T19:09:30;70;55;38
33948;PMS7003;20229;49.856;19.030;2023-02-28T19:14:44;69;52;36
33948;PMS7003;20229;49.856;19.030;2023-02-28T19:19:59;59;46;31
33948;PMS7003;20229;49.856;19.030;2023-02-28T19:25:13;60;47;32
33948;PMS7003;20229;49.856;19.030;2023-02-28T19:30:26;73;55;38
33948;PMS7003;20229;49.856;19.030;2023-02-28T19:35:41;72;55;41
33948;PMS7003;20229;49.856;19.030;2023-02-28T19:46:19;70;57;43
33948;PMS7003;20229;49.856;19.030;2023-02-28T19:51:33;59;47;34
33948;PMS7003;20229;49.856;19.030;2023-02-28T19:56:48;67;51;35
33948;PMS7003;20229;49.856;19.030;2023-02-28T20:02:02;60;43;27
33948;PMS7003;20229;49.856;19.030;2023-02-28T20:07:17;56;42;26
33948;PMS7003;20229;49.856;19.030;2023-02-28T20:12:32;50;39;27
33948;PMS7003;20229;49.856;19.030;2023-02-28T20:17:46;59;46;27
33948;PMS7003;20229;49.856;19.030;2023-02-28T20:23:01;61;47;29
33948;PMS7003;20229;49.856;19.030;2023-02-28T20:28:16;64;47;31
33948;PMS7003;20229;49.856;19.030;2023-02-28T20:33:31;44;35;19
33948;PMS7003;20229;49.856;19.030;2023-02-28T20:38:44;60;47;30
33948;PMS7003;20229;49.856;19.030;2023-02-28T20:43:58;67;52;32
33948;PMS7003;20229;49.856;19.030;2023-02-28T20:49:15;66;49;28
33948;PMS7003;20229;49.856;19.030;2023-02-28T20:54:28;64;46;27
33948;PMS7003;20229;49.856;19.030;2023-02-28T20:59:43;61;44;28
33948;PMS7003;20229;49.856;19.030;2023-02-28T21:04:56;70;52;32
33948;PMS7003;20229;49.856;19.030;2023-02-28T21:10:10;67;52;31
33948;PMS7003;20229;49.856;19.030;2023-02-28T21:15:24;68;49;31
33948;PMS7003;20229;49.856;19.030;2023-02-28T21:20:38;72;52;32
33948;PMS7003;20229;49.856;19.030;2023-02-28T21:25:52;66;50;31
33948;PMS7003;20229;49.856;19.030;2023-02-28T21:31:06;70;52;30
33948;PMS7003;20229;49.856;19.030;2023-02-28T21:36:22;67;50;33
33948;PMS7003;20229;49.856;19.030;2023-02-28T21:41:41;66;48;30
33948;PMS7003;20229;49.856;19.030;2023-02-28T21:46:55;74;56;36
33948;PMS7003;20229;49.856;19.030;2023-02-28T21:52:13;72;53;34
33948;PMS7003;20229;49.856;19.030;2023-02-28T21:57:27;70;52;33
33948;PMS7003;20229;49.856;19.030;2023-02-28T22:02:41;65;50;30
33948;PMS7003;20229;49.856;19.030;2023-02-28T22:07:55;76;59;37
33948;PMS7003;20229;49.856;19.030;2023-02-28T22:13:09;72;53;34
33948;PMS7003;20229;49.856;19.030;2023-02-28T22:18:23;73;55;34
33948;PMS7003;20229;49.856;19.030;2023-02-28T22:23:37;56;38;15
33948;PMS7003;20229;49.856;19.030;2023-02-28T22:28:52;75;55;35
33948;PMS7003;20229;49.856;19.030;2023-02-28T22:34:07;70;52;34
33948;PMS7003;20229;49.856;19.030;2023-02-28T22:39:23;71;53;34
33948;PMS7003;20229;49.856;19.030;2023-02-28T22:44:37;71;52;35
33948;PMS7003;20229;49.856;19.030;2023-02-28T22:49:53;70;52;31
33948;PMS7003;20229;49.856;19.030;2023-02-28T22:55:07;42;27;10
33948;PMS7003;20229;49.856;19.030;2023-02-28T23:00:22;70;52;29
33948;PMS7003;20229;49.856;19.030;2023-02-28T23:05:36;61;45;20
33948;PMS7003;20229;49.856;19.030;2023-02-28T23:10:50;49;32;8
33948;PMS7003;20229;49.856;19.030;2023-02-28T23:16:05;63;42;14
33948;PMS7003;20229;49.856;19.030;2023-02-28T23:21:19;121;104;26
33948;PMS7003;20229;49.856;19.030;2023-02-28T23:26:33;145;121;26
33948;PMS7003;20229;49.856;19.030;2023-02-28T23:31:47;134;120;28
33948;PMS7003;20229;49.856;19.030;2023-02-28T23:37:02;138;118;34
33948;PMS7003;20229;49.856;19.030;2023-02-28T23:42:16;220;205;75
33948;PMS7003;20229;49.856;19.030;2023-02-28T23:47:30;237;224;94
33948;PMS7003;20229;49.856;19.030;2023-02-28T23:52:44;290;279;107
33948;PMS7003;20229;49.856;19.030;2023-02-28T23:57:58;275;266;96
